Springmont, Pennsylvania
Current Conditions -  °F | °C
As of 6:54 PM on Saturday 25 Oct 2014 (Local Time) from KRDG Reporting Station
Overcast Overcast  
Wind Chill: 64°   Ceiling: 6500
Heat Index: 64°   Visibility: 10mi
Dew Point: 45°   Wind: 9mph
Humidity: 50%   Direction: 220°SW
Pressure: 29.66"   Gusts: NA
Location:  40.3275°N, 75.9966°W
Report Text: KRDG 252254Z AUTO 22008KT 10SM OVC065 18/07 A2966 RMK AO2 SLP048 T01780072
Loading
Personal Weather Stations






























Interactive Weather Map
Tropical Storm Tracking
New forecast layout! Learn more

10-Day Weather Forecast

Advertisements
Track Severe Weather on mobile